Time;durP1;ratioP1;P1;durP2;ratioP2;P2;SDS_P1;SDS_P2;PMS_P1;PMS_P2;Temp;Humidity;BMP_temperature;BMP_pressure;BME280_temperature;BME280_humidity;BME280_pressure;Samples;Min_cycle;Max_cycle;Signal;HPM_P1;HPM_P2
2022/07/05 00:00:46;;;;;;;5.73;5.23;;;;;;;;;;5054115;28;20025;-74
2022/07/05 00:03:12;;;;;;;5.35;4.85;;;;;;;;;;5053912;28;20740;-74
2022/07/05 00:05:37;;;;;;;7.00;5.97;;;;;;;;;;5053673;28;20021;-74
2022/07/05 00:08:03;;;;;;;5.75;4.82;;;;;;;;;;5053858;28;20369;-71
2022/07/05 00:10:29;;;;;;;6.05;5.55;;;;;;;;;;5053761;28;20433;-73
2022/07/05 00:12:54;;;;;;;5.65;5.13;;;;;;;;;;5053803;28;20482;-73
2022/07/05 00:15:19;;;;;;;6.05;5.45;;;;;;;;;;5053838;28;20048;-74
2022/07/05 00:17:44;;;;;;;6.00;5.32;;;;;;;;;;5035873;28;20025;-76
2022/07/05 00:20:10;;;;;;;6.20;5.53;;;;;;;;;;5053637;28;20035;-74
2022/07/05 00:22:35;;;;;;;5.75;5.10;;;;;;;;;;5053825;28;20266;-73
2022/07/05 00:25:00;;;;;;;7.38;5.20;;;;;;;;;;5053767;28;20442;-73
2022/07/05 00:27:26;;;;;;;6.10;5.50;;;;;;;;;;5053666;28;20111;-73
2022/07/05 00:29:51;;;;;;;5.90;5.40;;;;;;;;;;5053628;28;20290;-73
2022/07/05 00:32:16;;;;;;;5.00;4.60;;;;;;;;;;5035631;28;20817;-74
2022/07/05 00:34:41;;;;;;;7.90;4.70;;;;;;;;;;5035548;28;20278;-73
2022/07/05 00:37:07;;;;;;;6.27;5.20;;;;;;;;;;5053352;28;20275;-73
2022/07/05 00:39:32;;;;;;;5.50;4.40;;;;;;;;;;5053394;28;20359;-73
2022/07/05 00:41:57;;;;;;;5.50;5.00;;;;;;;;;;5035587;28;20024;-72
2022/07/05 00:44:34;;;;;;;5.30;4.90;;;;;;;;;;5053047;28;20083;-73
2022/07/05 00:47:00;;;;;;;5.60;5.00;;;;;;;;;;5053474;28;20320;-73
2022/07/05 00:49:25;;;;;;;5.07;4.68;;;;;;;;;;5053098;28;20021;-73
2022/07/05 00:51:50;;;;;;;7.80;4.60;;;;;;;;;;5053470;28;20021;-73
2022/07/05 00:54:16;;;;;;;5.33;4.53;;;;;;;;;;5053601;28;20025;-72
2022/07/05 00:56:42;;;;;;;5.50;5.00;;;;;;;;;;5053342;28;20278;-73
2022/07/05 00:59:08;;;;;;;5.10;4.63;;;;;;;;;;5035299;28;20021;-73
2022/07/05 01:01:33;;;;;;;5.93;5.33;;;;;;;;;;5053223;28;20104;-72
2022/07/05 01:03:58;;;;;;;5.33;4.37;;;;;;;;;;5036077;28;20267;-74
2022/07/05 01:06:23;;;;;;;4.82;4.43;;;;;;;;;;5039281;28;20021;-73
2022/07/05 01:08:49;;;;;;;6.53;4.90;;;;;;;;;;5057361;28;20043;-73
2022/07/05 01:11:15;;;;;;;5.53;4.43;;;;;;;;;;5057459;28;20724;-72
2022/07/05 01:13:40;;;;;;;4.75;4.35;;;;;;;;;;5057506;28;20017;-73
2022/07/05 01:16:06;;;;;;;4.60;4.20;;;;;;;;;;5056987;28;20025;-74
2022/07/05 01:18:32;;;;;;;5.50;4.20;;;;;;;;;;5037176;28;20086;-73
2022/07/05 01:20:58;;;;;;;3.50;3.20;;;;;;;;;;5055130;28;20025;-73
2022/07/05 01:23:23;;;;;;;3.80;3.50;;;;;;;;;;5055001;28;20024;-73
2022/07/05 01:25:48;;;;;;;4.53;3.60;;;;;;;;;;5036536;28;20424;-74
2022/07/05 01:28:14;;;;;;;4.85;4.45;;;;;;;;;;5036493;28;20041;-72
2022/07/05 01:30:40;;;;;;;3.97;3.60;;;;;;;;;;5054516;28;20021;-74
2022/07/05 01:33:06;;;;;;;4.30;3.90;;;;;;;;;;5055295;28;20465;-73
2022/07/05 01:35:31;;;;;;;3.70;3.40;;;;;;;;;;5038136;28;20025;-74
2022/07/05 01:37:56;;;;;;;4.30;3.90;;;;;;;;;;5054825;28;20025;-74
2022/07/05 01:40:22;;;;;;;5.27;4.27;;;;;;;;;;5054789;28;20339;-74
2022/07/05 01:42:47;;;;;;;4.30;3.28;;;;;;;;;;5054429;28;20279;-74
2022/07/05 01:45:38;;;;;;;3.97;3.67;;;;;;;;;;5054453;28;20112;-75
2022/07/05 01:47:59;;;;;;;4.82;4.43;;;;;;;;;;5039251;28;20099;-74
2022/07/05 01:50:24;;;;;;;3.80;3.50;;;;;;;;;;5054315;28;20463;-74
2022/07/05 01:52:50;;;;;;;4.50;3.97;;;;;;;;;;5056352;28;20040;-73
2022/07/05 01:55:16;;;;;;;4.40;4.00;;;;;;;;;;5056440;28;20112;-74
2022/07/05 01:57:41;;;;;;;4.63;4.23;;;;;;;;;;5038453;28;20116;-73
2022/07/05 02:00:07;;;;;;;5.18;4.68;;;;;;;;;;5038198;28;20279;-73
2022/07/05 02:02:32;;;;;;;4.68;4.28;;;;;;;;;;5038454;28;20029;-73
2022/07/05 02:04:57;;;;;;;5.22;4.72;;;;;;;;;;5056455;28;20017;-73
2022/07/05 02:07:23;;;;;;;5.10;4.70;;;;;;;;;;5038425;28;20037;-73
2022/07/05 02:09:48;;;;;;;5.27;4.70;;;;;;;;;;5056084;28;20863;-73
2022/07/05 02:12:13;;;;;;;4.97;4.23;;;;;;;;;;5056191;28;20275;-74
2022/07/05 02:14:38;;;;;;;4.57;4.07;;;;;;;;;;5055413;28;20286;-73
2022/07/05 02:17:04;;;;;;;5.15;4.68;;;;;;;;;;5037843;28;20271;-73
2022/07/05 02:19:29;;;;;;;5.63;4.67;;;;;;;;;;5056205;28;20044;-73
2022/07/05 02:21:54;;;;;;;7.95;4.90;;;;;;;;;;5055835;28;20305;-73
2022/07/05 02:24:20;;;;;;;7.35;6.07;;;;;;;;;;5055763;28;20075;-74
2022/07/05 02:26:46;;;;;;;5.65;5.10;;;;;;;;;;5037877;28;20021;-73
2022/07/05 02:29:12;;;;;;;5.38;4.57;;;;;;;;;;5055591;28;20052;-74
2022/07/05 02:31:37;;;;;;;4.53;4.13;;;;;;;;;;5055556;28;20103;-72
2022/07/05 02:34:02;;;;;;;6.25;4.78;;;;;;;;;;5055424;28;20271;-73
2022/07/05 02:36:28;;;;;;;7.23;4.77;;;;;;;;;;5055559;28;20028;-73
2022/07/05 02:38:53;;;;;;;5.53;5.00;;;;;;;;;;5055453;28;20264;-72
2022/07/05 02:41:18;;;;;;;5.65;4.85;;;;;;;;;;5037550;28;20032;-73
2022/07/05 02:43:44;;;;;;;6.40;4.70;;;;;;;;;;5055538;28;20063;-72
2022/07/05 02:46:10;;;;;;;5.47;4.97;;;;;;;;;;5037238;28;20024;-73
2022/07/05 02:48:36;;;;;;;6.32;5.57;;;;;;;;;;5055336;28;20263;-73
2022/07/05 02:51:01;;;;;;;5.32;4.80;;;;;;;;;;5020704;28;20029;-73
2022/07/05 02:53:27;;;;;;;6.20;5.35;;;;;;;;;;5053016;28;20465;-75
2022/07/05 02:55:52;;;;;;;5.65;5.07;;;;;;;;;;5035109;28;20075;-73
2022/07/05 02:58:17;;;;;;;5.53;4.93;;;;;;;;;;5053009;28;20021;-74
2022/07/05 03:00:48;;;;;;;5.57;5.07;;;;;;;;;;5053356;28;20757;-74
2022/07/05 03:03:13;;;;;;;5.30;4.88;;;;;;;;;;5035891;28;20112;-73
2022/07/05 03:05:39;;;;;;;6.38;4.95;;;;;;;;;;5053430;28;20553;-74
2022/07/05 03:08:04;;;;;;;4.78;4.38;;;;;;;;;;5052884;28;20083;-74
2022/07/05 03:10:30;;;;;;;5.25;4.78;;;;;;;;;;5035242;28;20017;-74
2022/07/05 03:12:55;;;;;;;5.15;4.50;;;;;;;;;;5054455;28;20099;-74
2022/07/05 03:15:20;;;;;;;10.47;5.40;;;;;;;;;;5034809;28;20018;-74
2022/07/05 03:17:45;;;;;;;11.40;8.38;;;;;;;;;;5035073;28;20329;-74
2022/07/05 03:20:11;;;;;;;6.88;6.00;;;;;;;;;;5052753;28;20519;-74
2022/07/05 03:22:36;;;;;;;9.13;5.37;;;;;;;;;;5052648;28;20052;-73
2022/07/05 03:25:02;;;;;;;9.10;4.40;;;;;;;;;;5052674;28;20259;-74
2022/07/05 03:27:28;;;;;;;5.80;4.95;;;;;;;;;;5033688;28;20291;-74
2022/07/05 03:29:53;;;;;;;5.75;5.05;;;;;;;;;;5034706;28;20040;-78
2022/07/05 03:32:18;;;;;;;5.85;5.25;;;;;;;;;;5036181;28;20064;-77
2022/07/05 03:34:43;;;;;;;5.17;4.67;;;;;;;;;;5033075;28;20024;-77
2022/07/05 03:37:09;;;;;;;4.20;3.90;;;;;;;;;;5051146;28;20263;-76
2022/07/05 03:39:34;;;;;;;5.05;4.55;;;;;;;;;;5034759;28;20263;-76
2022/07/05 03:41:59;;;;;;;4.93;4.47;;;;;;;;;;5052430;28;20013;-77
2022/07/05 03:44:25;;;;;;;6.32;4.78;;;;;;;;;;5052672;28;20259;-76
2022/07/05 03:46:50;;;;;;;6.47;4.63;;;;;;;;;;5053661;28;20021;-76
2022/07/05 03:49:15;;;;;;;5.10;4.38;;;;;;;;;;5035065;28;20346;-75
2022/07/05 03:51:40;;;;;;;4.35;3.95;;;;;;;;;;5053002;28;20017;-76
2022/07/05 03:54:07;;;;;;;5.07;4.60;;;;;;;;;;5035728;28;20024;-77
2022/07/05 03:56:33;;;;;;;5.88;4.30;;;;;;;;;;5036141;28;20279;-77
2022/07/05 03:58:59;;;;;;;5.13;4.55;;;;;;;;;;5036118;28;20024;-77
2022/07/05 04:01:25;;;;;;;7.30;4.38;;;;;;;;;;5035685;28;20028;-78
2022/07/05 04:03:51;;;;;;;9.20;4.93;;;;;;;;;;5053548;28;20462;-77
2022/07/05 04:06:31;;;;;;;9.70;5.55;;;;;;;;;;5053876;28;20017;-78
2022/07/05 04:08:57;;;;;;;9.32;5.35;;;;;;;;;;5024772;28;20113;-78
2022/07/05 04:11:25;;;;;;;7.38;4.97;;;;;;;;;;5016132;28;20013;-75
2022/07/05 04:13:51;;;;;;;9.13;6.22;;;;;;;;;;5053059;28;20017;-76
2022/07/05 04:16:16;;;;;;;6.40;5.57;;;;;;;;;;5053859;28;20017;-76
2022/07/05 04:18:41;;;;;;;12.07;4.47;;;;;;;;;;5053633;28;20032;-79
2022/07/05 04:21:08;;;;;;;5.43;4.90;;;;;;;;;;5035764;28;20675;-78
2022/07/05 04:23:34;;;;;;;5.97;4.80;;;;;;;;;;5053648;28;20264;-78
2022/07/05 04:26:01;;;;;;;9.05;4.82;;;;;;;;;;5035680;28;20070;-77
2022/07/05 04:28:29;;;;;;;5.68;4.53;;;;;;;;;;5035658;28;20521;-78
2022/07/05 04:30:57;;;;;;;5.65;5.15;;;;;;;;;;5053774;28;20025;-78
2022/07/05 04:33:22;;;;;;;6.70;5.22;;;;;;;;;;5019080;28;20032;-78
2022/07/05 04:35:47;;;;;;;14.83;5.33;;;;;;;;;;5035418;28;20020;-78
2022/07/05 04:38:13;;;;;;;6.20;5.05;;;;;;;;;;5035487;28;20362;-78
2022/07/05 04:40:40;;;;;;;9.10;5.60;;;;;;;;;;5053183;28;20017;-78
2022/07/05 04:43:07;;;;;;;6.82;5.88;;;;;;;;;;5053337;28;20013;-78
2022/07/05 04:45:33;;;;;;;7.82;6.38;;;;;;;;;;5035602;28;20027;-76
2022/07/05 04:47:59;;;;;;;8.88;7.40;;;;;;;;;;5035480;28;20381;-78
2022/07/05 04:50:25;;;;;;;6.65;4.95;;;;;;;;;;5053464;28;20492;-78
2022/07/05 04:52:52;;;;;;;7.03;5.40;;;;;;;;;;5053430;28;20485;-79
2022/07/05 04:55:20;;;;;;;5.78;5.00;;;;;;;;;;5035351;28;20025;-79
2022/07/05 04:57:46;;;;;;;4.93;4.50;;;;;;;;;;5035623;28;20059;-76
2022/07/05 05:00:14;;;;;;;5.82;5.30;;;;;;;;;;5035219;28;20017;-79
2022/07/05 05:02:39;;;;;;;9.18;6.50;;;;;;;;;;5018726;28;20135;-80
2022/07/05 05:05:05;;;;;;;7.72;5.97;;;;;;;;;;5035911;28;20457;-80
2022/07/05 05:07:30;;;;;;;7.97;5.07;;;;;;;;;;5053200;28;20013;-81
2022/07/05 05:09:57;;;;;;;8.27;5.65;;;;;;;;;;5053274;28;20477;-83
2022/07/05 05:12:23;;;;;;;8.20;5.25;;;;;;;;;;5035174;28;20489;-80
2022/07/05 05:14:57;;;;;;;7.28;5.90;;;;;;;;;;5053222;28;20044;-80
2022/07/05 05:17:23;;;;;;;6.60;6.00;;;;;;;;;;5053210;28;20021;-79
2022/07/05 05:19:49;;;;;;;5.55;5.05;;;;;;;;;;5034977;28;20021;-78
2022/07/05 05:22:15;;;;;;;6.82;5.85;;;;;;;;;;5047575;28;20116;-74
2022/07/05 05:24:40;;;;;;;8.90;6.40;;;;;;;;;;5029878;28;20498;-75
2022/07/05 05:27:05;;;;;;;8.87;6.40;;;;;;;;;;5032674;28;20275;-77
2022/07/05 05:29:31;;;;;;;8.23;5.40;;;;;;;;;;5032435;28;20284;-75
2022/07/05 05:31:56;;;;;;;8.77;6.97;;;;;;;;;;5032874;28;20013;-79
2022/07/05 05:34:21;;;;;;;6.13;5.13;;;;;;;;;;5014889;28;20460;-80
2022/07/05 05:36:47;;;;;;;9.00;5.28;;;;;;;;;;5014897;28;20275;-78
2022/07/05 05:39:13;;;;;;;7.75;6.00;;;;;;;;;;5032437;28;20033;-76
2022/07/05 05:41:38;;;;;;;6.95;6.07;;;;;;;;;;5032651;28;20026;-75
2022/07/05 05:44:04;;;;;;;11.40;6.57;;;;;;;;;;5032793;28;20443;-81
2022/07/05 05:46:29;;;;;;;6.60;5.50;;;;;;;;;;5014593;28;20501;-76
2022/07/05 05:48:54;;;;;;;8.90;5.23;;;;;;;;;;5032645;28;20049;-79
2022/07/05 05:51:21;;;;;;;6.30;5.03;;;;;;;;;;5035410;28;20268;-79
2022/07/05 05:53:46;;;;;;;11.82;6.93;;;;;;;;;;5036009;28;20124;-78
2022/07/05 05:56:14;;;;;;;6.85;5.35;;;;;;;;;;5018110;28;20116;-78
2022/07/05 05:58:41;;;;;;;7.65;5.28;;;;;;;;;;5035860;28;20462;-79
2022/07/05 06:01:06;;;;;;;6.85;4.93;;;;;;;;;;5021907;28;20040;-82
2022/07/05 06:03:31;;;;;;;7.07;5.43;;;;;;;;;;5038199;28;20473;-82
2022/07/05 06:05:57;;;;;;;6.90;5.85;;;;;;;;;;5055788;28;20044;-80
2022/07/05 06:08:23;;;;;;;7.15;5.63;;;;;;;;;;5056084;28;20521;-81
2022/07/05 06:10:51;;;;;;;8.90;5.72;;;;;;;;;;5030821;28;20134;-81
2022/07/05 06:13:18;;;;;;;5.68;5.13;;;;;;;;;;5031443;28;20017;-81
2022/07/05 06:15:44;;;;;;;6.70;5.28;;;;;;;;;;5034935;28;20033;-82
2022/07/05 06:18:11;;;;;;;11.40;5.65;;;;;;;;;;5035079;28;20017;-82
2022/07/05 06:20:37;;;;;;;9.77;7.05;;;;;;;;;;5017299;28;20117;-82
2022/07/05 06:23:03;;;;;;;8.48;7.22;;;;;;;;;;5000642;28;20021;-82
2022/07/05 06:25:33;;;;;;;12.65;8.80;;;;;;;;;;5034938;28;20030;-82
2022/07/05 06:28:06;;;;;;;8.77;6.93;;;;;;;;;;5016643;28;20053;-85
2022/07/05 06:30:32;;;;;;;10.93;6.40;;;;;;;;;;5019624;28;20333;-77
2022/07/05 06:32:58;;;;;;;9.43;7.07;;;;;;;;;;5011134;28;20025;-79
2022/07/05 06:35:24;;;;;;;13.85;6.63;;;;;;;;;;5032286;28;20085;-77
2022/07/05 06:37:53;;;;;;;8.30;7.15;;;;;;;;;;5033994;28;20501;-80
2022/07/05 06:40:20;;;;;;;8.25;6.20;;;;;;;;;;5034091;28;20308;-78
2022/07/05 06:42:46;;;;;;;8.70;6.20;;;;;;;;;;5035401;28;20022;-91
2022/07/05 06:45:12;;;;;;;8.77;5.68;;;;;;;;;;5000319;28;20028;-88
2022/07/05 06:47:38;;;;;;;8.10;5.28;;;;;;;;;;5000590;28;20018;-87
2022/07/05 06:50:04;;;;;;;6.22;4.88;;;;;;;;;;5018033;28;20017;-81
2022/07/05 06:52:30;;;;;;;6.07;5.30;;;;;;;;;;5034875;28;20017;-77
2022/07/05 06:54:55;;;;;;;6.35;5.45;;;;;;;;;;5034195;28;20075;-77
2022/07/05 06:57:21;;;;;;;6.20;5.60;;;;;;;;;;5034135;28;20373;-78
2022/07/05 06:59:46;;;;;;;6.00;5.50;;;;;;;;;;5016130;28;20048;-77
2022/07/05 07:02:13;;;;;;;7.00;5.20;;;;;;;;;;5032666;28;20017;-77
2022/07/05 07:04:38;;;;;;;9.90;5.55;;;;;;;;;;5016454;28;20032;-77
2022/07/05 07:07:03;;;;;;;8.20;6.47;;;;;;;;;;5034274;28;20022;-79
2022/07/05 07:09:30;;;;;;;7.20;5.93;;;;;;;;;;5033819;28;20014;-80
2022/07/05 07:11:55;;;;;;;10.63;6.63;;;;;;;;;;5033875;28;20017;-81
2022/07/05 07:14:21;;;;;;;10.05;6.55;;;;;;;;;;5033877;28;20076;-78
2022/07/05 07:16:46;;;;;;;13.80;7.88;;;;;;;;;;5033681;28;20014;-76
2022/07/05 07:19:11;;;;;;;11.93;7.57;;;;;;;;;;5016017;28;20018;-76
2022/07/05 07:21:37;;;;;;;14.32;8.48;;;;;;;;;;5015069;28;20091;-77
2022/07/05 07:24:04;;;;;;;10.48;6.28;;;;;;;;;;5025440;28;20021;-80
2022/07/05 07:27:02;;;;;;;9.68;6.25;;;;;;;;;;5035753;28;20123;-80
2022/07/05 07:29:21;;;;;;;7.87;5.93;;;;;;;;;;4988839;28;1849763;-81
2022/07/05 07:31:47;;;;;;;19.15;7.82;;;;;;;;;;5057280;28;20061;-80
2022/07/05 07:34:12;;;;;;;10.75;6.75;;;;;;;;;;5036749;28;20059;-81
2022/07/05 07:36:37;;;;;;;13.25;7.28;;;;;;;;;;5023695;28;20462;-80
2022/07/05 07:39:03;;;;;;;29.40;10.32;;;;;;;;;;5040859;28;20482;-80
2022/07/05 07:41:28;;;;;;;8.47;6.30;;;;;;;;;;5034034;28;20112;-80
2022/07/05 07:43:55;;;;;;;10.00;8.13;;;;;;;;;;5034874;28;20481;-83
2022/07/05 07:46:22;;;;;;;9.60;7.65;;;;;;;;;;5016886;28;20359;-79
2022/07/05 07:48:47;;;;;;;11.73;7.90;;;;;;;;;;5034510;28;20017;-83
2022/07/05 07:51:13;;;;;;;7.53;6.23;;;;;;;;;;5034319;28;20060;-79
2022/07/05 07:53:38;;;;;;;6.23;5.63;;;;;;;;;;5034984;28;20310;-84
2022/07/05 07:56:03;;;;;;;6.97;5.70;;;;;;;;;;5016882;28;20606;-86
2022/07/05 07:58:29;;;;;;;8.52;5.78;;;;;;;;;;5017544;28;20325;-89
2022/07/05 08:00:54;;;;;;;11.20;6.15;;;;;;;;;;5018958;28;20398;-79
2022/07/05 08:03:19;;;;;;;11.77;6.20;;;;;;;;;;5034258;28;20386;-80
2022/07/05 08:05:47;;;;;;;4.87;4.20;;;;;;;;;;5034404;28;20349;-81
2022/07/05 08:08:12;;;;;;;4.18;3.65;;;;;;;;;;5034540;28;20268;-79
2022/07/05 08:10:37;;;;;;;5.82;3.33;;;;;;;;;;5018432;28;20394;-83
2022/07/05 08:13:03;;;;;;;5.03;3.80;;;;;;;;;;5034253;28;20037;-79
2022/07/05 08:15:29;;;;;;;7.85;3.10;;;;;;;;;;5016479;28;20626;-85
2022/07/05 08:23:22;;;;;;;7.20;6.05;;;;;;;;;;5033926;28;20064;-78
2022/07/05 08:25:48;;;;;;;12.57;9.40;;;;;;;;;;5036253;28;20025;-81
2022/07/05 08:28:13;;;;;;;16.58;11.32;;;;;;;;;;5015958;28;20625;-87
2022/07/05 08:30:39;;;;;;;16.50;14.90;;;;;;;;;;5016543;28;20017;-84
2022/07/05 08:33:05;;;;;;;26.27;18.83;;;;;;;;;;5015395;28;20820;-83
2022/07/05 08:35:31;;;;;;;21.92;18.23;;;;;;;;;;5030967;28;20327;-85
2022/07/05 08:37:58;;;;;;;13.20;11.77;;;;;;;;;;5013496;28;20033;-86
2022/07/05 08:40:26;;;;;;;15.32;10.38;;;;;;;;;;5016812;28;20036;-85
2022/07/05 08:42:52;;;;;;;14.55;9.85;;;;;;;;;;5033542;28;20025;-86
2022/07/05 08:45:18;;;;;;;15.15;7.95;;;;;;;;;;5012385;28;20026;-85
2022/07/05 08:47:44;;;;;;;10.18;8.20;;;;;;;;;;4981521;28;20034;-85
2022/07/05 08:50:30;;;;;;;10.38;5.65;;;;;;;;;;4995919;28;20064;-86
2022/07/05 08:52:55;;;;;;;7.20;4.57;;;;;;;;;;5047694;28;20025;-86
2022/07/05 08:55:22;;;;;;;5.25;3.28;;;;;;;;;;5022814;28;20044;-78
2022/07/05 08:57:49;;;;;;;3.92;3.40;;;;;;;;;;5031962;28;20137;-82
2022/07/05 09:00:35;;;;;;;8.63;3.95;;;;;;;;;;5015947;28;20026;-87
2022/07/05 09:03:21;;;;;;;5.43;2.20;;;;;;;;;;5012104;28;20025;-87
2022/07/05 09:05:54;;;;;;;4.07;2.53;;;;;;;;;;5046508;28;20037;-86
2022/07/05 09:08:21;;;;;;;8.85;3.35;;;;;;;;;;5000368;28;20090;-89
2022/07/05 09:10:48;;;;;;;3.85;2.72;;;;;;;;;;5021586;28;20021;-89
2022/07/05 09:13:14;;;;;;;6.13;3.15;;;;;;;;;;4998165;28;20390;-89
2022/07/05 09:15:39;;;;;;;5.60;2.90;;;;;;;;;;5015498;28;20164;-89
2022/07/05 09:18:07;;;;;;;7.22;2.83;;;;;;;;;;5032805;28;20104;-85
2022/07/05 09:20:33;;;;;;;5.57;3.67;;;;;;;;;;5022773;28;20065;-87
2022/07/05 09:22:58;;;;;;;4.68;2.58;;;;;;;;;;5014245;28;20080;-85
2022/07/05 09:25:28;;;;;;;3.40;3.10;;;;;;;;;;5043441;28;20017;-87
2022/07/05 09:28:09;;;;;;;4.70;3.05;;;;;;;;;;5028501;28;20288;-85
2022/07/05 09:30:43;;;;;;;5.55;2.63;;;;;;;;;;5031228;28;20021;-87
2022/07/05 09:33:17;;;;;;;5.40;2.63;;;;;;;;;;5054632;28;20021;-86
2022/07/05 09:35:54;;;;;;;3.95;2.67;;;;;;;;;;5023239;28;20466;-83
2022/07/05 09:38:21;;;;;;;5.00;2.97;;;;;;;;;;5033968;28;20063;-84
2022/07/05 09:40:48;;;;;;;2.95;2.50;;;;;;;;;;5018398;28;20435;-84
2022/07/05 09:43:15;;;;;;;4.97;2.88;;;;;;;;;;5032401;28;20379;-82
2022/07/05 09:45:49;;;;;;;7.47;3.28;;;;;;;;;;5036301;28;20032;-82
2022/07/05 09:48:21;;;;;;;5.47;2.97;;;;;;;;;;5019044;28;20076;-84
2022/07/05 09:50:48;;;;;;;14.27;4.28;;;;;;;;;;5015917;28;20026;-82
2022/07/05 09:53:17;;;;;;;3.45;2.22;;;;;;;;;;5044211;28;20391;-86
2022/07/05 09:55:44;;;;;;;5.03;2.08;;;;;;;;;;5023118;28;20033;-85
2022/07/05 09:58:12;;;;;;;14.32;9.82;;;;;;;;;;5018340;28;20037;-87
2022/07/05 10:00:44;;;;;;;4.75;2.67;;;;;;;;;;5035698;28;20075;-81
2022/07/05 10:03:09;;;;;;;2.30;2.10;;;;;;;;;;5010005;28;20032;-82
2022/07/05 10:05:35;;;;;;;8.85;7.47;;;;;;;;;;5035921;28;20029;-83
2022/07/05 10:08:01;;;;;;;3.10;2.30;;;;;;;;;;5036654;28;20025;-87
2022/07/05 10:10:26;;;;;;;2.28;2.10;;;;;;;;;;5020242;28;20025;-83
2022/07/05 10:12:53;;;;;;;3.70;2.70;;;;;;;;;;5036018;28;20080;-87
2022/07/05 10:15:20;;;;;;;5.28;3.13;;;;;;;;;;5018277;28;20024;-80
2022/07/05 10:17:52;;;;;;;4.15;2.55;;;;;;;;;;5036527;28;20045;-89
2022/07/05 10:20:28;;;;;;;3.00;2.70;;;;;;;;;;5019654;28;20382;-88
2022/07/05 10:22:53;;;;;;;4.50;3.08;;;;;;;;;;5023373;28;20025;-81
2022/07/05 10:25:19;;;;;;;5.63;3.22;;;;;;;;;;5037392;28;20407;-79
2022/07/05 10:27:44;;;;;;;4.43;3.25;;;;;;;;;;5037088;28;20021;-86
2022/07/05 10:30:10;;;;;;;4.15;2.83;;;;;;;;;;5019261;28;20410;-87
2022/07/05 10:32:36;;;;;;;5.07;2.80;;;;;;;;;;5035847;28;20033;-82
2022/07/05 10:35:03;;;;;;;3.40;2.60;;;;;;;;;;5039071;28;20100;-84
2022/07/05 10:37:29;;;;;;;4.10;2.42;;;;;;;;;;5036260;28;20374;-85
2022/07/05 10:39:59;;;;;;;4.75;2.45;;;;;;;;;;5017835;28;20022;-84
2022/07/05 10:42:25;;;;;;;3.30;2.53;;;;;;;;;;5031087;28;20022;-84
2022/07/05 10:44:50;;;;;;;4.18;2.25;;;;;;;;;;5030709;28;20096;-86
2022/07/05 10:47:18;;;;;;;2.97;2.00;;;;;;;;;;5017309;28;20547;-85
2022/07/05 10:49:58;;;;;;;3.58;2.08;;;;;;;;;;5037471;28;20088;-82
2022/07/05 10:52:24;;;;;;;4.88;2.38;;;;;;;;;;5017329;28;20026;-83
2022/07/05 10:55:16;;;;;;;2.85;2.00;;;;;;;;;;5017224;28;20108;-84
2022/07/05 10:57:41;;;;;;;3.83;2.00;;;;;;;;;;5029738;28;20438;-88
2022/07/05 11:00:07;;;;;;;7.23;2.57;;;;;;;;;;5035410;28;20021;-90
2022/07/05 11:02:33;;;;;;;2.50;2.10;;;;;;;;;;5034850;28;20276;-79
2022/07/05 11:04:58;;;;;;;3.33;2.63;;;;;;;;;;5035163;28;20102;-77
2022/07/05 11:07:42;;;;;;;4.00;2.53;;;;;;;;;;5034800;28;20025;-76
2022/07/05 11:10:07;;;;;;;3.67;3.00;;;;;;;;;;5034796;28;20109;-81
2022/07/05 11:12:39;;;;;;;3.77;2.50;;;;;;;;;;5017113;28;20120;-77
2022/07/05 11:15:06;;;;;;;4.30;3.53;;;;;;;;;;5034808;28;20307;-78
2022/07/05 11:17:32;;;;;;;5.22;4.38;;;;;;;;;;5035541;28;20021;-79
2022/07/05 11:20:03;;;;;;;5.20;4.57;;;;;;;;;;5035036;28;20064;-79
2022/07/05 11:22:29;;;;;;;5.05;4.28;;;;;;;;;;5035078;28;20037;-81
2022/07/05 11:24:55;;;;;;;11.43;4.90;;;;;;;;;;5034369;28;20076;-79
2022/07/05 11:27:20;;;;;;;7.65;5.28;;;;;;;;;;5034259;28;20032;-81
2022/07/05 11:29:47;;;;;;;8.30;4.93;;;;;;;;;;5016398;28;20128;-83
2022/07/05 11:32:13;;;;;;;7.85;4.88;;;;;;;;;;5016803;28;20026;-80
2022/07/05 11:34:39;;;;;;;3.92;3.53;;;;;;;;;;5034386;28;20028;-82
2022/07/05 11:37:13;;;;;;;6.28;4.22;;;;;;;;;;5016539;28;20017;-82
2022/07/05 11:39:42;;;;;;;6.32;4.72;;;;;;;;;;5016479;28;20031;-80
2022/07/05 11:42:11;;;;;;;7.45;6.65;;;;;;;;;;5016401;28;20021;-84
2022/07/05 11:44:40;;;;;;;8.40;7.53;;;;;;;;;;5016282;28;20021;-80
2022/07/05 11:47:05;;;;;;;10.88;8.98;;;;;;;;;;5033377;28;20424;-79
2022/07/05 11:49:30;;;;;;;7.95;6.68;;;;;;;;;;5016364;28;20545;-78
2022/07/05 11:51:59;;;;;;;10.93;7.68;;;;;;;;;;5017047;28;20043;-84
2022/07/05 11:54:26;;;;;;;12.77;7.57;;;;;;;;;;5018064;28;20057;-87
2022/07/05 11:56:51;;;;;;;8.65;5.22;;;;;;;;;;5036367;28;20052;-82
2022/07/05 11:59:21;;;;;;;14.32;5.78;;;;;;;;;;5017422;28;20455;-82
2022/07/05 12:01:46;;;;;;;6.15;4.35;;;;;;;;;;5013940;28;20028;-85
2022/07/05 12:04:11;;;;;;;8.60;4.33;;;;;;;;;;5013968;28;20026;-81
2022/07/05 12:06:43;;;;;;;4.87;3.00;;;;;;;;;;5012637;28;20323;-80
2022/07/05 12:09:08;;;;;;;4.13;2.83;;;;;;;;;;5033698;28;20272;-81
2022/07/05 12:14:21;;;;;;;3.65;2.22;;;;;;;;;;5055140;28;20277;-79
2022/07/05 12:16:47;;;;;;;3.42;2.20;;;;;;;;;;5054097;28;20021;-83
2022/07/05 12:19:23;;;;;;;3.38;2.17;;;;;;;;;;5030897;28;20079;-81
2022/07/05 12:21:52;;;;;;;7.28;1.75;;;;;;;;;;5032384;28;20083;-79
2022/07/05 12:24:18;;;;;;;1.73;1.63;;;;;;;;;;5034515;28;20029;-81
2022/07/05 12:26:43;;;;;;;3.10;1.30;;;;;;;;;;5015928;28;20117;-80
2022/07/05 12:29:09;;;;;;;1.80;1.65;;;;;;;;;;5007100;28;20140;-84
2022/07/05 12:31:34;;;;;;;1.92;1.70;;;;;;;;;;5018797;28;20033;-80
2022/07/05 12:34:15;;;;;;;2.67;1.50;;;;;;;;;;5034367;28;20048;-80
2022/07/05 12:36:42;;;;;;;1.60;1.50;;;;;;;;;;5052467;28;20033;-79
2022/07/05 12:39:07;;;;;;;2.15;1.95;;;;;;;;;;5052962;28;20523;-80
2022/07/05 12:41:32;;;;;;;1.33;1.20;;;;;;;;;;5052988;28;20033;-80
2022/07/05 12:43:58;;;;;;;7.17;2.20;;;;;;;;;;5052662;28;20271;-79
2022/07/05 12:46:37;;;;;;;1.70;1.33;;;;;;;;;;5051720;28;20020;-82
2022/07/05 12:49:02;;;;;;;1.38;1.27;;;;;;;;;;5033612;28;20028;-79
2022/07/05 12:51:35;;;;;;;1.98;1.63;;;;;;;;;;5051904;28;20379;-82
2022/07/05 12:59:40;;;;;;;1.92;1.73;;;;;;;;;;5028266;28;20107;-83
2022/07/05 13:02:06;;;;;;;1.42;1.25;;;;;;;;;;5033610;28;20075;-84
2022/07/05 13:04:31;;;;;;;2.67;1.52;;;;;;;;;;5049348;28;20025;-85
2022/07/05 13:07:00;;;;;;;1.60;1.50;;;;;;;;;;5051211;28;20450;-85
2022/07/05 13:09:32;;;;;;;3.40;2.40;;;;;;;;;;5034348;28;20290;-85
2022/07/05 13:11:57;;;;;;;;;;;;;;;;;;5053105;28;20100;-84
2022/07/05 13:14:22;;;;;;;5.68;1.63;;;;;;;;;;5055612;28;20026;-84
2022/07/05 13:16:47;;;;;;;1.92;1.50;;;;;;;;;;5034519;28;20025;-86
2022/07/05 13:19:13;;;;;;;4.33;2.07;;;;;;;;;;5035069;28;20458;-88
2022/07/05 13:21:38;;;;;;;2.45;2.00;;;;;;;;;;5052480;28;20287;-87
2022/07/05 13:24:04;;;;;;;3.50;1.70;;;;;;;;;;5052974;28;20015;-85
2022/07/05 13:26:29;;;;;;;2.88;1.52;;;;;;;;;;5053611;28;20023;-85
2022/07/05 13:28:55;;;;;;;2.00;1.58;;;;;;;;;;5053398;28;20056;-84
2022/07/05 13:31:20;;;;;;;2.20;2.00;;;;;;;;;;5052881;28;20028;-85
2022/07/05 13:33:45;;;;;;;2.97;1.80;;;;;;;;;;5053126;28;20033;-84
2022/07/05 13:36:11;;;;;;;2.50;1.40;;;;;;;;;;5052547;28;20279;-85
2022/07/05 13:38:36;;;;;;;1.27;1.10;;;;;;;;;;5019019;28;20025;-85
2022/07/05 13:41:01;;;;;;;2.37;1.50;;;;;;;;;;5035154;28;20314;-85
2022/07/05 13:43:26;;;;;;;3.53;1.43;;;;;;;;;;5052723;28;20818;-85
2022/07/05 13:45:53;;;;;;;1.80;1.60;;;;;;;;;;5034013;28;20324;-84
2022/07/05 13:48:18;;;;;;;3.05;2.10;;;;;;;;;;5034971;28;20274;-85
2022/07/05 13:50:43;;;;;;;6.63;2.23;;;;;;;;;;5034003;28;20033;-86
2022/07/05 13:53:08;;;;;;;8.07;2.23;;;;;;;;;;5052440;28;20270;-84
2022/07/05 13:55:35;;;;;;;1.93;1.70;;;;;;;;;;5034473;28;20270;-83
2022/07/05 13:58:00;;;;;;;9.65;1.52;;;;;;;;;;5052580;28;20354;-83
2022/07/05 14:00:26;;;;;;;1.52;1.42;;;;;;;;;;5053058;28;20108;-83
2022/07/05 14:02:51;;;;;;;1.65;1.40;;;;;;;;;;5052642;28;20386;-82
2022/07/05 14:05:18;;;;;;;3.92;1.63;;;;;;;;;;5034685;28;20048;-80
2022/07/05 14:07:43;;;;;;;1.35;1.25;;;;;;;;;;5052861;28;20017;-83
2022/07/05 14:10:09;;;;;;;3.67;1.52;;;;;;;;;;5052435;28;20091;-80
2022/07/05 14:12:34;;;;;;;1.10;1.10;;;;;;;;;;5037844;28;20063;-81
2022/07/05 14:14:59;;;;;;;1.60;1.50;;;;;;;;;;5038170;28;20107;-80
2022/07/05 14:17:26;;;;;;;1.37;1.20;;;;;;;;;;5055967;28;20600;-82
2022/07/05 14:19:51;;;;;;;2.95;1.80;;;;;;;;;;5055501;28;20286;-82
2022/07/05 14:22:16;;;;;;;4.23;1.90;;;;;;;;;;5056775;28;20021;-86
2022/07/05 14:24:41;;;;;;;2.28;1.75;;;;;;;;;;5038084;28;20025;-83
2022/07/05 14:27:08;;;;;;;2.53;1.80;;;;;;;;;;5055705;28;20477;-81
2022/07/05 14:29:34;;;;;;;4.85;1.85;;;;;;;;;;5056007;28;20090;-82
2022/07/05 14:31:59;;;;;;;5.80;2.10;;;;;;;;;;5056293;28;20024;-83
2022/07/05 14:34:24;;;;;;;4.83;1.90;;;;;;;;;;5041478;28;20128;-80
2022/07/05 14:36:49;;;;;;;1.85;1.30;;;;;;;;;;5058645;28;20279;-82
2022/07/05 14:39:15;;;;;;;1.60;1.50;;;;;;;;;;5063213;28;20087;-83
2022/07/05 14:41:40;;;;;;;1.67;1.23;;;;;;;;;;5024604;28;20290;-83
2022/07/05 14:44:05;;;;;;;1.55;1.45;;;;;;;;;;5041957;28;20450;-81
2022/07/05 14:46:30;;;;;;;1.43;1.33;;;;;;;;;;5055359;28;20024;-83
2022/07/05 14:48:56;;;;;;;4.97;1.60;;;;;;;;;;5056340;28;20450;-83
2022/07/05 14:51:22;;;;;;;2.90;1.80;;;;;;;;;;5037818;28;20058;-83